createdAt,value
2018-01-14T00:00:43.041Z,21.10
2018-01-14T00:01:54.010Z,21.08
2018-01-14T00:03:00.238Z,21.08
2018-01-14T00:04:06.460Z,21.75
2018-01-14T00:05:12.704Z,20.17
2018-01-14T00:06:18.871Z,20.23
2018-01-14T00:07:25.026Z,19.45
2018-01-14T00:08:31.226Z,18.50
2018-01-14T00:09:37.040Z,23.60
2018-01-14T00:10:43.030Z,20.05
2018-01-14T00:11:56.046Z,24.25
2018-01-14T00:13:02.241Z,20.92
2018-01-14T00:14:12.425Z,19.15
2018-01-14T00:15:18.587Z,21.50
2018-01-14T00:16:24.772Z,22.25
2018-01-14T00:17:32.853Z,21.50
2018-01-14T00:18:39.038Z,20.92
2018-01-14T00:19:45.260Z,22.05
2018-01-14T00:20:51.466Z,21.23
2018-01-14T00:21:57.665Z,24.05
2018-01-14T00:23:03.870Z,22.73
2018-01-14T00:24:10.344Z,21.25
2018-01-14T00:25:16.577Z,23.83
2018-01-14T00:26:27.992Z,21.73
2018-01-14T00:27:35.075Z,24.98
2018-01-14T00:28:41.303Z,19.95
2018-01-14T00:29:47.505Z,23.40
2018-01-14T00:30:53.748Z,21.42
2018-01-14T00:31:59.903Z,23.87
2018-01-14T00:33:06.225Z,21.45
2018-01-14T00:34:12.536Z,22.25
2018-01-14T00:35:18.671Z,20.77
2018-01-14T00:36:24.473Z,24.12
2018-01-14T00:37:30.683Z,25.73
2018-01-14T00:38:36.872Z,20.45
2018-01-14T00:39:43.046Z,22.17
2018-01-14T00:40:51.098Z,26.02
2018-01-14T00:41:57.303Z,25.27
2018-01-14T00:43:03.517Z,25.70
2018-01-14T00:44:09.688Z,22.05
2018-01-14T00:45:15.826Z,22.90
2018-01-14T00:46:22.048Z,23.62
2018-01-14T00:47:28.196Z,28.52
2018-01-14T00:48:34.360Z,24.67
2018-01-14T00:49:40.552Z,25.02
2018-01-14T00:50:46.755Z,24.30
2018-01-14T00:51:52.966Z,27.20
2018-01-14T00:52:59.135Z,24.40
2018-01-14T00:54:05.009Z,23.30
2018-01-14T00:55:13.153Z,25.80
2018-01-14T00:56:19.378Z,24.67
2018-01-14T00:57:25.562Z,25.67
2018-01-14T00:58:31.904Z,25.80
2018-01-14T00:59:38.062Z,23.60
2018-01-14T01:00:44.220Z,25.50
2018-01-14T01:01:50.136Z,26.42
2018-01-14T01:02:56.323Z,28.90
2018-01-14T01:04:02.524Z,28.02
2018-01-14T01:05:08.694Z,24.12
2018-01-14T01:06:14.895Z,25.42
2018-01-14T01:07:21.071Z,24.73
2018-01-14T01:08:27.236Z,24.25
2018-01-14T01:09:33.415Z,27.15
2018-01-14T01:10:39.587Z,21.85
2018-01-14T01:11:45.811Z,26.33
2018-01-14T01:12:52.047Z,27.42
2018-01-14T01:14:03.391Z,23.00
2018-01-14T01:15:09.567Z,28.00
2018-01-14T01:16:16.676Z,28.62
2018-01-14T01:17:22.939Z,23.80
2018-01-14T01:18:29.973Z,26.45
2018-01-14T01:19:36.166Z,23.45
2018-01-14T01:20:42.405Z,24.12
2018-01-14T01:21:50.559Z,26.65
2018-01-14T01:22:59.684Z,21.77
2018-01-14T01:24:05.875Z,23.62
2018-01-14T01:25:12.065Z,26.37
2018-01-14T01:26:18.088Z,27.60
2018-01-14T01:27:24.274Z,24.85
2018-01-14T01:28:30.622Z,28.40
2018-01-14T01:29:36.614Z,26.85
2018-01-14T01:30:42.911Z,28.05
2018-01-14T01:31:49.108Z,23.25
2018-01-14T01:32:55.316Z,27.75
2018-01-14T01:34:01.539Z,24.02
2018-01-14T01:35:07.504Z,24.92
2018-01-14T01:36:13.765Z,26.52
2018-01-14T01:37:19.934Z,24.73
2018-01-14T01:38:26.114Z,30.62
2018-01-14T01:39:32.388Z,24.40
2018-01-14T01:40:38.587Z,29.65
2018-01-14T01:41:44.815Z,29.10
2018-01-14T01:42:51.160Z,26.42
2018-01-14T01:43:58.736Z,27.42
2018-01-14T01:45:05.760Z,28.42
2018-01-14T01:46:13.320Z,27.70
2018-01-14T01:47:20.460Z,27.58
2018-01-14T01:48:27.015Z,27.40
2018-01-14T01:49:33.472Z,29.90
2018-01-14T01:50:41.037Z,27.35
2018-01-14T01:51:47.849Z,25.35
2018-01-14T01:52:54.566Z,26.85
2018-01-14T01:54:01.601Z,25.10
2018-01-14T01:55:08.542Z,27.50
2018-01-14T01:56:15.246Z,27.60
2018-01-14T01:57:21.880Z,26.00
2018-01-14T01:58:28.545Z,27.05
2018-01-14T01:59:35.431Z,28.58
2018-01-14T02:00:41.812Z,27.45
2018-01-14T02:01:47.386Z,26.52
2018-01-14T02:02:54.175Z,30.55
2018-01-14T02:04:00.842Z,27.33
2018-01-14T02:05:07.798Z,27.08
2018-01-14T02:06:14.086Z,31.50
2018-01-14T02:07:20.731Z,28.77
2018-01-14T02:08:26.940Z,30.55
2018-01-14T02:09:33.490Z,29.17
2018-01-14T02:10:39.663Z,28.52
2018-01-14T02:11:46.480Z,30.27
2018-01-14T02:12:53.594Z,29.92
2018-01-14T02:14:00.575Z,25.98
2018-01-14T02:15:07.084Z,32.85
2018-01-14T02:16:14.018Z,30.58
2018-01-14T02:17:20.898Z,28.23
2018-01-14T02:18:27.517Z,28.33
2018-01-14T02:19:42.205Z,28.77
2018-01-14T02:20:49.044Z,29.92
2018-01-14T02:21:55.626Z,31.02
2018-01-14T02:23:02.048Z,26.80
2018-01-14T02:24:08.810Z,29.15
2018-01-14T02:25:15.419Z,31.52
2018-01-14T02:26:22.011Z,32.65
2018-01-14T02:27:28.871Z,28.58
2018-01-14T02:28:35.151Z,36.33
2018-01-14T02:29:42.225Z,26.10
2018-01-14T02:30:48.881Z,32.78
2018-01-14T02:31:55.525Z,30.48
2018-01-14T02:33:01.954Z,32.30
2018-01-14T02:34:08.392Z,32.15
2018-01-14T02:35:14.767Z,29.70
2018-01-14T02:36:22.594Z,33.35
2018-01-14T02:37:29.024Z,32.08
2018-01-14T02:38:40.507Z,36.00
2018-01-14T02:39:47.163Z,30.27
2018-01-14T02:40:53.957Z,29.75
2018-01-14T02:42:00.689Z,33.05
2018-01-14T02:43:07.994Z,30.05
2018-01-14T02:44:14.384Z,32.75
2018-01-14T02:45:21.347Z,28.60
2018-01-14T02:46:27.790Z,29.90
2018-01-14T02:47:34.552Z,31.48
2018-01-14T02:48:41.101Z,35.55
2018-01-14T02:49:50.460Z,32.85
2018-01-14T02:50:57.045Z,33.72
2018-01-14T02:52:03.378Z,31.52
2018-01-14T02:53:09.576Z,33.00
2018-01-14T02:54:16.270Z,31.08
2018-01-14T02:55:23.730Z,31.50
2018-01-14T02:56:31.375Z,31.87
2018-01-14T02:57:38.525Z,29.20
2018-01-14T02:58:45.398Z,32.42
2018-01-14T02:59:52.332Z,33.70
2018-01-14T03:01:00.335Z,34.67
2018-01-14T03:02:07.625Z,32.05
2018-01-14T03:03:14.817Z,33.28
2018-01-14T03:04:23.054Z,28.92
2018-01-14T03:05:31.101Z,28.75
2018-01-14T03:06:38.345Z,34.67
2018-01-14T03:07:51.957Z,32.53
2018-01-14T03:08:58.200Z,32.22
2018-01-14T03:10:04.399Z,34.85
2018-01-14T03:11:10.591Z,32.60
2018-01-14T03:12:16.849Z,29.92
2018-01-14T03:13:23.051Z,32.45
2018-01-14T03:14:29.274Z,32.58
2018-01-14T03:15:37.141Z,30.73
2018-01-14T03:16:43.053Z,31.73
2018-01-14T03:17:49.330Z,26.48
2018-01-14T03:18:55.482Z,33.92
2018-01-14T03:20:01.633Z,34.17
2018-01-14T03:21:07.822Z,31.02
2018-01-14T03:22:14.045Z,36.97
2018-01-14T03:23:20.260Z,31.10
2018-01-14T03:24:26.407Z,32.78
2018-01-14T03:25:32.637Z,32.97
2018-01-14T03:26:38.804Z,31.87
2018-01-14T03:27:45.024Z,33.13
2018-01-14T03:28:51.187Z,33.70
2018-01-14T03:29:57.388Z,28.42
2018-01-14T03:31:03.576Z,34.38
2018-01-14T03:32:09.775Z,32.40
2018-01-14T03:33:15.944Z,33.50
2018-01-14T03:34:22.160Z,31.50
2018-01-14T03:35:28.400Z,27.67
2018-01-14T03:36:34.651Z,34.58
2018-01-14T03:37:40.815Z,33.80
2018-01-14T03:38:46.984Z,33.45
2018-01-14T03:39:53.158Z,27.77
2018-01-14T03:40:59.366Z,29.35
2018-01-14T03:42:05.541Z,31.50
2018-01-14T03:43:11.854Z,32.67
2018-01-14T03:44:18.056Z,31.70
2018-01-14T03:45:24.267Z,31.83
2018-01-14T03:46:30.465Z,40.22
2018-01-14T03:47:36.655Z,32.55
2018-01-14T03:48:42.906Z,30.92
2018-01-14T03:49:49.096Z,36.58
2018-01-14T03:50:55.301Z,36.15
2018-01-14T03:52:05.546Z,34.47
2018-01-14T03:53:11.819Z,32.53
2018-01-14T03:54:18.939Z,38.00
2018-01-14T03:55:25.179Z,34.13
2018-01-14T03:56:31.404Z,32.67
2018-01-14T03:57:37.673Z,35.95
2018-01-14T03:58:45.907Z,33.67
2018-01-14T03:59:52.085Z,31.08
2018-01-14T04:00:58.308Z,32.22
2018-01-14T04:02:04.579Z,34.75
2018-01-14T04:03:10.763Z,33.30
2018-01-14T04:04:17.916Z,33.15
2018-01-14T04:05:24.128Z,36.78
2018-01-14T04:06:30.338Z,34.25
2018-01-14T04:07:36.552Z,33.10
2018-01-14T04:08:42.841Z,31.83
2018-01-14T04:09:49.014Z,35.80
2018-01-14T04:10:55.189Z,31.10
2018-01-14T04:12:01.399Z,33.42
2018-01-14T04:13:07.610Z,30.67
2018-01-14T04:14:13.793Z,33.42
2018-01-14T04:15:19.788Z,30.92
2018-01-14T04:16:25.990Z,34.67
2018-01-14T04:17:32.195Z,35.45
2018-01-14T04:18:38.203Z,38.83
2018-01-14T04:19:44.419Z,33.92
2018-01-14T04:20:50.644Z,32.05
2018-01-14T04:21:56.834Z,32.50
2018-01-14T04:23:03.890Z,31.73
2018-01-14T04:24:10.155Z,31.60
2018-01-14T04:25:16.322Z,34.50
2018-01-14T04:26:22.579Z,30.12
2018-01-14T04:27:28.847Z,35.53
2018-01-14T04:28:35.033Z,37.17
2018-01-14T04:29:42.140Z,35.28
2018-01-14T04:30:48.344Z,34.08
2018-01-14T04:31:54.530Z,38.35
2018-01-14T04:33:00.806Z,38.08
2018-01-14T04:34:06.954Z,32.83
2018-01-14T04:35:13.109Z,38.47
2018-01-14T04:36:19.292Z,32.30
2018-01-14T04:37:25.428Z,35.60
2018-01-14T04:38:31.864Z,36.55
2018-01-14T04:39:38.043Z,37.72
2018-01-14T04:40:44.183Z,34.40
2018-01-14T04:41:50.365Z,33.33
2018-01-14T04:42:56.723Z,40.20
2018-01-14T04:44:02.867Z,30.60
2018-01-14T04:45:09.057Z,33.20
2018-01-14T04:46:15.195Z,34.00
2018-01-14T04:47:21.404Z,33.53
2018-01-14T04:48:27.586Z,33.50
2018-01-14T04:49:33.792Z,34.08
2018-01-14T04:50:39.989Z,34.17
2018-01-14T04:51:46.239Z,33.97
2018-01-14T04:52:52.483Z,35.83
2018-01-14T04:53:59.575Z,29.67
2018-01-14T04:55:05.820Z,33.90
2018-01-14T04:56:12.030Z,35.45
2018-01-14T04:57:18.215Z,32.22
2018-01-14T04:58:24.422Z,34.83
2018-01-14T04:59:30.831Z,37.35
2018-01-14T05:00:36.716Z,35.42
2018-01-14T05:01:42.846Z,32.67
2018-01-14T05:02:48.988Z,37.95
2018-01-14T05:03:55.223Z,37.15
2018-01-14T05:05:01.451Z,31.23
2018-01-14T05:06:07.635Z,33.33
2018-01-14T05:07:13.768Z,39.22
2018-01-14T05:08:20.002Z,31.40
2018-01-14T05:09:26.235Z,34.55
2018-01-14T05:10:32.468Z,33.72
2018-01-14T05:11:38.646Z,37.67
2018-01-14T05:12:44.816Z,35.15
2018-01-14T05:13:52.992Z,36.10
2018-01-14T05:14:59.154Z,30.35
2018-01-14T05:16:05.311Z,30.12
2018-01-14T05:17:11.534Z,35.33
2018-01-14T05:18:18.710Z,35.35
2018-01-14T05:19:24.884Z,36.08
2018-01-14T05:20:31.108Z,31.77
2018-01-14T05:21:37.273Z,32.67
2018-01-14T05:22:43.506Z,31.90
2018-01-14T05:23:49.811Z,32.53
2018-01-14T05:24:56.055Z,35.55
2018-01-14T05:26:02.246Z,37.13
2018-01-14T05:27:08.478Z,33.20
2018-01-14T05:28:14.652Z,37.28
2018-01-14T05:29:20.920Z,30.08
2018-01-14T05:30:27.093Z,32.15
2018-01-14T05:31:33.384Z,39.50
2018-01-14T05:32:39.612Z,38.28
2018-01-14T05:33:45.780Z,33.53
2018-01-14T05:34:52.005Z,36.05
2018-01-14T05:35:58.211Z,36.65
2018-01-14T05:37:10.368Z,36.10
2018-01-14T05:38:16.580Z,39.10
2018-01-14T05:39:22.764Z,36.08
2018-01-14T05:40:28.927Z,35.63
2018-01-14T05:41:35.136Z,31.90
2018-01-14T05:42:41.291Z,38.28
2018-01-14T05:43:47.548Z,35.83
2018-01-14T05:44:54.043Z,38.88
2018-01-14T05:46:00.201Z,34.22
2018-01-14T05:47:06.374Z,36.30
2018-01-14T05:48:12.579Z,33.22
2018-01-14T05:49:18.784Z,31.98
2018-01-14T05:50:24.992Z,33.80
2018-01-14T05:51:31.200Z,38.53
2018-01-14T05:52:37.443Z,32.28
2018-01-14T05:53:43.596Z,38.38
2018-01-14T05:54:49.781Z,34.85
2018-01-14T05:55:55.960Z,37.45
2018-01-14T05:57:02.187Z,36.58
2018-01-14T05:58:08.334Z,34.97
2018-01-14T05:59:14.549Z,33.95
2018-01-14T06:00:20.733Z,40.00
2018-01-14T06:01:26.917Z,32.00
2018-01-14T06:02:33.131Z,39.58
2018-01-14T06:03:39.325Z,36.05
2018-01-14T06:04:45.572Z,29.00
2018-01-14T06:05:51.418Z,38.05
2018-01-14T06:06:57.638Z,39.25
2018-01-14T06:08:04.035Z,37.17
2018-01-14T06:09:09.832Z,33.92
2018-01-14T06:10:15.916Z,37.15
2018-01-14T06:11:22.101Z,37.25
2018-01-14T06:12:28.281Z,37.10
2018-01-14T06:13:34.616Z,31.73
2018-01-14T06:14:40.794Z,34.38
2018-01-14T06:15:46.995Z,34.33
2018-01-14T06:16:53.169Z,37.28
2018-01-14T06:17:59.355Z,39.45
2018-01-14T06:19:05.224Z,37.90
2018-01-14T06:20:11.374Z,34.45
2018-01-14T06:21:17.547Z,33.75
2018-01-14T06:22:23.768Z,36.17
2018-01-14T06:23:29.983Z,34.08
2018-01-14T06:24:36.115Z,32.90
2018-01-14T06:25:42.284Z,33.20
2018-01-14T06:26:48.541Z,37.83
2018-01-14T06:27:54.831Z,36.55
2018-01-14T06:29:01.015Z,37.00
2018-01-14T06:30:07.241Z,38.03
2018-01-14T06:31:13.423Z,28.20
2018-01-14T06:32:19.623Z,32.72
2018-01-14T06:33:25.907Z,36.95
2018-01-14T06:34:32.139Z,35.00
2018-01-14T06:35:38.383Z,33.05
2018-01-14T06:36:44.852Z,32.63
2018-01-14T06:37:51.031Z,31.77
2018-01-14T06:38:57.379Z,35.28
2018-01-14T06:40:03.628Z,33.00
2018-01-14T06:41:09.846Z,31.67
2018-01-14T06:42:16.011Z,32.10
2018-01-14T06:43:23.131Z,35.13
2018-01-14T06:44:29.349Z,31.00
2018-01-14T06:45:35.552Z,33.70
2018-01-14T06:46:41.744Z,29.65
2018-01-14T06:47:47.917Z,30.10
2018-01-14T06:48:54.150Z,32.85
2018-01-14T06:50:00.309Z,34.00
2018-01-14T06:51:06.521Z,33.95
2018-01-14T06:52:12.707Z,34.22
2018-01-14T06:53:18.929Z,35.38
2018-01-14T06:54:25.116Z,32.53
2018-01-14T06:55:31.361Z,30.42
2018-01-14T06:56:37.563Z,32.75
2018-01-14T06:57:44.086Z,41.08
2018-01-14T06:58:50.294Z,35.38
2018-01-14T06:59:56.480Z,32.30
2018-01-14T07:01:02.706Z,36.17
2018-01-14T07:02:08.889Z,29.73
2018-01-14T07:03:15.055Z,30.75
2018-01-14T07:04:21.221Z,32.20
2018-01-14T07:05:27.445Z,29.27
2018-01-14T07:06:33.359Z,32.67
2018-01-14T07:07:39.548Z,33.70
2018-01-14T07:08:45.700Z,35.83
2018-01-14T07:09:51.951Z,34.25
2018-01-14T07:11:02.046Z,34.88
2018-01-14T07:12:08.259Z,33.15
2018-01-14T07:13:14.420Z,32.03
2018-01-14T07:14:20.677Z,33.38
2018-01-14T07:15:26.926Z,31.67
2018-01-14T07:16:33.151Z,36.53
2018-01-14T07:17:39.310Z,29.67
2018-01-14T07:18:45.515Z,31.15
2018-01-14T07:19:51.686Z,34.55
2018-01-14T07:20:57.932Z,31.98
2018-01-14T07:22:04.091Z,33.08
2018-01-14T07:23:10.330Z,32.05
2018-01-14T07:24:16.625Z,27.70
2018-01-14T07:25:22.827Z,32.20
2018-01-14T07:26:29.016Z,35.65
2018-01-14T07:27:35.188Z,32.75
2018-01-14T07:28:41.393Z,31.17
2018-01-14T07:29:47.559Z,33.22
2018-01-14T07:30:53.754Z,33.60
2018-01-14T07:31:59.891Z,31.25
2018-01-14T07:33:06.153Z,32.40
2018-01-14T07:34:12.316Z,34.85
2018-01-14T07:35:18.602Z,36.40
2018-01-14T07:36:24.814Z,32.92
2018-01-14T07:37:30.952Z,30.67
2018-01-14T07:38:37.126Z,32.95
2018-01-14T07:39:43.287Z,34.80
2018-01-14T07:40:49.443Z,35.78
2018-01-14T07:41:55.673Z,34.65
2018-01-14T07:43:01.820Z,35.22
2018-01-14T07:44:08.003Z,34.08
2018-01-14T07:45:15.002Z,32.75
2018-01-14T07:46:20.949Z,33.13
2018-01-14T07:47:27.286Z,36.78
2018-01-14T07:48:33.819Z,32.63
2018-01-14T07:49:40.194Z,38.00
2018-01-14T07:50:46.397Z,33.67
2018-01-14T07:51:52.567Z,30.42
2018-01-14T07:52:58.721Z,31.98
2018-01-14T07:54:05.730Z,31.65
2018-01-14T07:55:12.888Z,31.27
2018-01-14T07:56:19.087Z,35.00
2018-01-14T07:57:25.317Z,38.20
2018-01-14T07:58:31.484Z,32.47
2018-01-14T07:59:38.128Z,32.10
2018-01-14T08:00:45.923Z,32.42
2018-01-14T08:01:52.259Z,32.03
2018-01-14T08:03:00.535Z,33.70
2018-01-14T08:04:09.286Z,33.15
2018-01-14T08:05:16.084Z,32.80
2018-01-14T08:06:23.182Z,35.83
2018-01-14T08:07:30.741Z,31.85
2018-01-14T08:08:37.571Z,34.67
2018-01-14T08:09:43.935Z,33.70
2018-01-14T08:10:51.556Z,31.90
2018-01-14T08:12:01.263Z,32.55
2018-01-14T08:13:08.906Z,32.72
2018-01-14T08:14:17.701Z,32.47
2018-01-14T08:15:25.717Z,33.15
2018-01-14T08:16:32.553Z,36.97
2018-01-14T08:17:39.935Z,28.65
2018-01-14T08:18:46.637Z,29.52
2018-01-14T08:19:52.841Z,29.10
2018-01-14T08:20:59.024Z,30.12
2018-01-14T08:22:05.638Z,29.45
2018-01-14T08:23:11.926Z,29.25
2018-01-14T08:24:19.445Z,36.72
2018-01-14T08:25:26.557Z,31.50
2018-01-14T08:26:34.539Z,32.17
2018-01-14T08:27:42.591Z,29.60
2018-01-14T08:28:49.192Z,33.40
2018-01-14T08:29:56.029Z,30.30
2018-01-14T08:31:03.619Z,30.95
2018-01-14T08:32:15.629Z,33.33
2018-01-14T08:33:22.331Z,32.40
2018-01-14T08:34:28.993Z,34.08
2018-01-14T08:35:36.024Z,29.63
2018-01-14T08:36:44.165Z,39.25
2018-01-14T08:37:50.447Z,30.30
2018-01-14T08:38:56.672Z,32.78
2018-01-14T08:40:03.251Z,34.40
2018-01-14T08:41:09.945Z,31.05
2018-01-14T08:42:16.378Z,31.48
2018-01-14T08:43:22.761Z,29.83
2018-01-14T08:44:29.399Z,31.48
2018-01-14T08:45:35.878Z,32.03
2018-01-14T08:46:43.284Z,30.00
2018-01-14T08:47:52.312Z,30.75
2018-01-14T08:48:59.921Z,38.72
2018-01-14T08:50:06.922Z,32.35
2018-01-14T08:51:13.914Z,32.13
2018-01-14T08:52:22.364Z,31.10
2018-01-14T08:53:28.977Z,27.75
2018-01-14T08:54:35.806Z,31.12
2018-01-14T08:55:42.289Z,32.05
2018-01-14T08:56:48.848Z,30.50
2018-01-14T08:57:55.153Z,30.85
2018-01-14T08:59:07.321Z,26.50
2018-01-14T09:00:13.772Z,33.20
2018-01-14T09:01:26.659Z,30.95
2018-01-14T09:02:33.525Z,29.65
2018-01-14T09:03:40.921Z,30.15
2018-01-14T09:04:47.082Z,29.50
2018-01-14T09:05:53.263Z,28.98
2018-01-14T09:07:00.559Z,32.28
2018-01-14T09:08:07.202Z,30.08
2018-01-14T09:09:13.996Z,32.85
2018-01-14T09:10:20.629Z,29.98
2018-01-14T09:11:26.648Z,31.25
2018-01-14T09:12:33.546Z,28.92
2018-01-14T09:13:39.820Z,27.73
2018-01-14T09:14:45.992Z,33.15
2018-01-14T09:15:52.959Z,33.20
2018-01-14T09:16:59.756Z,28.42
2018-01-14T09:18:06.353Z,35.33
2018-01-14T09:19:13.416Z,35.45
2018-01-14T09:20:19.685Z,29.87
2018-01-14T09:21:27.009Z,32.90
2018-01-14T09:22:33.734Z,29.50
2018-01-14T09:23:40.305Z,33.22
2018-01-14T09:24:46.914Z,34.10
2018-01-14T09:25:53.386Z,30.45
2018-01-14T09:26:59.561Z,36.22
2018-01-14T09:28:06.283Z,33.80
2018-01-14T09:29:12.422Z,33.00
2018-01-14T09:30:17.886Z,34.90
2018-01-14T09:31:24.025Z,31.62
2018-01-14T09:32:30.258Z,33.75
2018-01-14T09:33:36.478Z,35.83
2018-01-14T09:34:42.675Z,32.95
2018-01-14T09:35:49.172Z,34.78
2018-01-14T09:36:55.408Z,36.88
2018-01-14T09:38:01.651Z,32.05
2018-01-14T09:39:07.811Z,33.55
2018-01-14T09:40:13.994Z,32.63
2018-01-14T09:41:21.152Z,31.25
2018-01-14T09:42:31.484Z,31.02
2018-01-14T09:43:37.746Z,31.45
2018-01-14T09:44:43.899Z,33.75
2018-01-14T09:45:50.108Z,34.47
2018-01-14T09:46:56.241Z,30.55
2018-01-14T09:48:02.415Z,34.15
2018-01-14T09:49:08.668Z,34.10
2018-01-14T09:50:14.904Z,30.10
2018-01-14T09:51:21.182Z,32.08
2018-01-14T09:52:27.430Z,29.92
2018-01-14T09:53:33.942Z,33.70
2018-01-14T09:54:40.320Z,31.98
2018-01-14T09:55:47.374Z,31.52
2018-01-14T09:56:53.508Z,31.60
2018-01-14T09:57:59.756Z,36.35
2018-01-14T09:59:06.026Z,33.38
2018-01-14T10:00:12.282Z,34.67
2018-01-14T10:01:18.530Z,36.17
2018-01-14T10:02:24.982Z,28.27
2018-01-14T10:03:33.220Z,29.90
2018-01-14T10:04:40.224Z,35.38
2018-01-14T10:05:46.888Z,28.73
2018-01-14T10:06:53.281Z,30.60
2018-01-14T10:07:59.764Z,33.15
2018-01-14T10:09:06.019Z,31.05
2018-01-14T10:10:12.365Z,30.23
2018-01-14T10:11:18.622Z,34.70
2018-01-14T10:12:24.848Z,30.25
2018-01-14T10:13:31.012Z,32.80
2018-01-14T10:14:37.714Z,33.55
2018-01-14T10:15:44.125Z,32.70
2018-01-14T10:16:50.835Z,33.17
2018-01-14T10:17:57.280Z,30.55
2018-01-14T10:19:03.611Z,33.90
2018-01-14T10:20:10.331Z,35.15
2018-01-14T10:21:17.019Z,34.03
2018-01-14T10:22:23.688Z,33.03
2018-01-14T10:23:31.472Z,34.55
2018-01-14T10:24:39.396Z,33.83
2018-01-14T10:25:46.609Z,29.10
2018-01-14T10:26:54.298Z,33.42
2018-01-14T10:28:03.869Z,34.03
2018-01-14T10:29:11.806Z,31.37
2018-01-14T10:30:20.684Z,33.13
2018-01-14T10:31:28.125Z,34.97
2018-01-14T10:32:35.911Z,33.40
2018-01-14T10:33:44.476Z,33.78
2018-01-14T10:34:52.498Z,32.80
2018-01-14T10:36:00.260Z,33.95
2018-01-14T10:37:10.311Z,31.60
2018-01-14T10:38:18.241Z,33.25
2018-01-14T10:39:25.258Z,31.25
2018-01-14T10:40:33.705Z,29.67
2018-01-14T10:41:41.962Z,34.38
2018-01-14T10:42:49.046Z,31.37
2018-01-14T10:43:56.515Z,34.92
2018-01-14T10:45:03.851Z,36.50
2018-01-14T10:46:13.615Z,34.17
2018-01-14T10:47:20.537Z,32.90
2018-01-14T10:48:28.526Z,32.63
2018-01-14T10:49:36.664Z,31.10
2018-01-14T10:50:44.405Z,33.60
2018-01-14T10:51:51.463Z,30.80
2018-01-14T10:52:59.264Z,31.12
2018-01-14T10:54:06.062Z,33.70
2018-01-14T10:55:13.226Z,33.03
2018-01-14T10:56:20.347Z,32.50
2018-01-14T10:57:28.795Z,29.98
2018-01-14T10:58:37.458Z,32.45
2018-01-14T10:59:46.016Z,31.73
2018-01-14T11:00:59.582Z,34.47
2018-01-14T11:02:06.990Z,32.90
2018-01-14T11:03:14.328Z,37.08
2018-01-14T11:04:21.816Z,32.95
2018-01-14T11:05:30.094Z,32.25
2018-01-14T11:06:37.930Z,34.15
2018-01-14T11:07:44.911Z,35.25
2018-01-14T11:08:52.110Z,34.20
2018-01-14T11:09:59.392Z,33.03
2018-01-14T11:11:06.533Z,32.65
2018-01-14T11:12:15.684Z,29.12
2018-01-14T11:13:24.835Z,29.60
2018-01-14T11:14:33.211Z,35.55
2018-01-14T11:15:41.272Z,31.77
2018-01-14T11:16:48.522Z,32.92
2018-01-14T11:17:57.187Z,31.70
2018-01-14T11:19:04.440Z,35.95
2018-01-14T11:20:14.052Z,32.33
2018-01-14T11:21:22.044Z,40.60
2018-01-14T11:22:29.421Z,36.88
2018-01-14T11:23:37.080Z,32.35
2018-01-14T11:24:44.080Z,32.95
2018-01-14T11:25:51.435Z,36.40
2018-01-14T11:26:59.323Z,25.73
2018-01-14T11:28:07.435Z,34.47
2018-01-14T11:29:27.303Z,32.92
2018-01-14T11:30:35.224Z,33.13
2018-01-14T11:31:43.063Z,34.35
2018-01-14T11:32:50.629Z,35.10
2018-01-14T11:33:57.671Z,34.40
2018-01-14T11:35:07.164Z,34.47
2018-01-14T11:36:14.739Z,32.67
2018-01-14T11:37:22.193Z,31.35
2018-01-14T11:38:30.127Z,33.92
2018-01-14T11:39:38.252Z,34.58
2018-01-14T11:40:47.896Z,41.53
2018-01-14T11:41:55.198Z,32.78
2018-01-14T11:43:02.651Z,30.27
2018-01-14T11:44:16.200Z,32.60
2018-01-14T11:45:24.001Z,29.17
2018-01-14T11:46:31.484Z,34.53
2018-01-14T11:47:41.766Z,24.35
2018-01-14T11:48:49.205Z,30.77
2018-01-14T11:49:56.943Z,31.60
2018-01-14T11:51:04.424Z,35.97
2018-01-14T11:52:11.747Z,32.83
2018-01-14T11:53:18.486Z,34.67
2018-01-14T11:54:25.730Z,37.47
2018-01-14T11:55:32.585Z,25.45
2018-01-14T11:56:39.418Z,34.67
2018-01-14T11:57:47.642Z,31.10
2018-01-14T11:58:54.711Z,30.45
2018-01-14T12:00:02.066Z,28.23
2018-01-14T12:01:09.227Z,30.05
2018-01-14T12:02:16.942Z,33.90
2018-01-14T12:03:23.521Z,36.95
2018-01-14T12:04:31.630Z,30.42
2018-01-14T12:05:39.579Z,31.05
2018-01-14T12:06:46.671Z,31.77
2018-01-14T12:07:53.789Z,29.90
2018-01-14T12:09:00.567Z,30.05
2018-01-14T12:10:07.751Z,34.65
2018-01-14T12:11:15.650Z,34.90
2018-01-14T12:12:22.906Z,32.00
2018-01-14T12:13:30.569Z,33.63
2018-01-14T12:14:37.747Z,28.77
2018-01-14T12:15:45.382Z,31.55
2018-01-14T12:16:52.844Z,33.30
2018-01-14T12:17:59.683Z,34.15
2018-01-14T12:19:06.606Z,26.12
2018-01-14T12:20:13.485Z,31.40
2018-01-14T12:21:22.740Z,33.90
2018-01-14T12:22:30.663Z,34.72
2018-01-14T12:23:38.294Z,30.45
2018-01-14T12:24:46.499Z,23.75
2018-01-14T12:25:53.935Z,29.83
2018-01-14T12:27:00.536Z,30.08
2018-01-14T12:28:07.224Z,31.77
2018-01-14T12:29:13.540Z,31.80
2018-01-14T12:30:19.798Z,31.27
2018-01-14T12:31:26.003Z,32.35
2018-01-14T12:32:43.549Z,32.28
2018-01-14T12:34:22.737Z,30.92
2018-01-14T12:35:46.839Z,29.98
2018-01-14T12:36:53.041Z,35.67
2018-01-14T12:37:59.928Z,28.80
2018-01-14T12:39:06.509Z,33.72
2018-01-14T12:40:13.080Z,32.33
2018-01-14T12:41:19.476Z,29.00
2018-01-14T12:42:26.816Z,31.50
2018-01-14T12:43:33.659Z,33.65
2018-01-14T12:44:39.852Z,28.45
2018-01-14T12:45:46.081Z,31.50
2018-01-14T12:46:52.289Z,28.67
2018-01-14T12:47:59.251Z,32.15
2018-01-14T12:49:05.389Z,31.73
2018-01-14T12:50:12.088Z,29.30
2018-01-14T12:51:18.404Z,31.98
2018-01-14T12:52:25.711Z,36.50
2018-01-14T12:53:31.966Z,32.35
2018-01-14T12:54:38.158Z,28.30
2018-01-14T12:55:45.135Z,27.15
2018-01-14T12:56:51.623Z,32.00
2018-01-14T12:57:57.827Z,31.00
2018-01-14T12:59:04.356Z,25.05
2018-01-14T13:00:10.593Z,27.98
2018-01-14T13:01:17.027Z,30.90
2018-01-14T13:02:23.301Z,30.42
2018-01-14T13:03:29.598Z,27.20
2018-01-14T13:04:36.226Z,28.92
2018-01-14T13:05:42.666Z,30.95
2018-01-14T13:06:50.068Z,30.70
2018-01-14T13:07:56.594Z,29.80
2018-01-14T13:09:03.624Z,30.02
2018-01-14T13:10:14.667Z,32.63
2018-01-14T13:11:22.255Z,31.85
2018-01-14T13:12:28.462Z,30.05
2018-01-14T13:13:36.096Z,30.45
2018-01-14T13:14:42.374Z,31.12
2018-01-14T13:15:48.752Z,27.67
2018-01-14T13:16:54.974Z,33.03
2018-01-14T13:18:01.349Z,31.65
2018-01-14T13:19:08.430Z,32.40
2018-01-14T13:20:14.723Z,30.25
2018-01-14T13:21:21.695Z,33.95
2018-01-14T13:22:28.468Z,26.73
2018-01-14T13:23:34.691Z,30.10
2018-01-14T13:24:40.965Z,29.00
2018-01-14T13:25:48.198Z,32.13
2018-01-14T13:26:54.567Z,31.25
2018-01-14T13:28:00.802Z,28.23
2018-01-14T13:29:07.834Z,29.48
2018-01-14T13:30:14.187Z,30.42
2018-01-14T13:31:20.866Z,30.65
2018-01-14T13:32:27.229Z,30.33
2018-01-14T13:33:33.488Z,30.80
2018-01-14T13:34:39.723Z,29.05
2018-01-14T13:35:46.125Z,24.75
2018-01-14T13:36:52.917Z,28.75
2018-01-14T13:37:59.160Z,28.12
2018-01-14T13:39:05.295Z,28.25
2018-01-14T13:40:12.335Z,28.50
2018-01-14T13:41:18.608Z,30.08
2018-01-14T13:42:24.857Z,25.85
2018-01-14T13:43:31.143Z,25.48
2018-01-14T13:44:38.331Z,21.87
2018-01-14T13:45:45.521Z,32.17
2018-01-14T13:46:53.805Z,34.00
2018-01-14T13:48:00.104Z,27.70
2018-01-14T13:49:06.672Z,33.83
2018-01-14T13:50:13.507Z,29.92
2018-01-14T13:51:20.327Z,27.85
2018-01-14T13:52:26.606Z,30.62
2018-01-14T13:53:32.823Z,28.65
2018-01-14T13:54:39.045Z,26.83
2018-01-14T13:55:45.349Z,26.25
2018-01-14T13:56:52.560Z,27.23
2018-01-14T13:57:59.196Z,27.48
2018-01-14T13:59:05.444Z,30.67
2018-01-14T14:00:11.774Z,27.52
2018-01-14T14:01:18.670Z,27.73
2018-01-14T14:02:24.915Z,30.35
2018-01-14T14:03:32.437Z,26.73
2018-01-14T14:04:38.318Z,29.05
2018-01-14T14:05:44.539Z,28.08
2018-01-14T14:06:50.793Z,26.58
2018-01-14T14:07:57.028Z,23.83
2018-01-14T14:09:03.371Z,24.27
2018-01-14T14:10:10.296Z,26.52
2018-01-14T14:11:16.578Z,22.90
2018-01-14T14:12:23.943Z,30.40
2018-01-14T14:13:30.184Z,25.60
2018-01-14T14:14:36.546Z,27.33
2018-01-14T14:15:42.908Z,28.23
2018-01-14T14:16:49.060Z,27.37
2018-01-14T14:17:56.448Z,29.77
2018-01-14T14:19:02.308Z,28.30
2018-01-14T14:20:08.519Z,30.12
2018-01-14T14:21:14.784Z,27.95